createdAt,value
2023-02-14T00:00:56.942Z,964.2
2023-02-14T00:01:59.391Z,964.1
2023-02-14T00:03:01.406Z,964.2
2023-02-14T00:04:03.515Z,964.2
2023-02-14T00:05:05.353Z,964.2
2023-02-14T00:06:10.292Z,964.2
2023-02-14T00:07:12.079Z,964.1
2023-02-14T00:08:16.446Z,964.1
2023-02-14T00:09:18.292Z,964.1
2023-02-14T00:10:20.260Z,964.1
2023-02-14T00:11:22.095Z,964
2023-02-14T00:12:26.596Z,964.1
2023-02-14T00:13:28.436Z,964.1
2023-02-14T00:14:30.175Z,964.1
2023-02-14T00:15:31.952Z,964.1
2023-02-14T00:16:34.068Z,964.1
2023-02-14T00:17:35.857Z,964.1
2023-02-14T00:18:40.393Z,964.1
2023-02-14T00:19:42.133Z,964.2
2023-02-14T00:20:43.858Z,964.1
2023-02-14T00:21:45.818Z,964.1
2023-02-14T00:22:47.622Z,964.1
2023-02-14T00:23:49.527Z,964.1
2023-02-14T00:24:54.122Z,964
2023-02-14T00:25:55.880Z,964.1
2023-02-14T00:26:57.827Z,964
2023-02-14T00:27:59.682Z,964
2023-02-14T00:29:01.538Z,964
2023-02-14T00:30:06.801Z,964
2023-02-14T00:31:09.526Z,964
2023-02-14T00:32:12.065Z,964
2023-02-14T00:33:17.021Z,964
2023-02-14T00:34:18.771Z,964
2023-02-14T00:35:20.633Z,964.1
2023-02-14T00:36:22.470Z,964
2023-02-14T00:37:24.317Z,964
2023-02-14T00:38:26.198Z,964
2023-02-14T00:39:28.023Z,964
2023-02-14T00:40:29.873Z,964
2023-02-14T00:41:31.726Z,964
2023-02-14T00:42:33.574Z,963.9
2023-02-14T00:43:35.412Z,964
2023-02-14T00:44:37.339Z,963.9
2023-02-14T00:45:39.313Z,963.9
2023-02-14T00:46:41.376Z,963.9
2023-02-14T00:47:43.332Z,963.9
2023-02-14T00:48:45.277Z,963.9
2023-02-14T00:49:47.160Z,963.9
2023-02-14T00:50:48.960Z,963.8
2023-02-14T00:51:50.843Z,963.9
2023-02-14T00:52:52.643Z,963.8
2023-02-14T00:53:54.446Z,963.8
2023-02-14T00:54:56.272Z,963.8
2023-02-14T00:55:58.123Z,963.7
2023-02-14T00:56:59.897Z,963.8
2023-02-14T00:58:01.928Z,963.7
2023-02-14T00:59:03.782Z,963.7
2023-02-14T01:00:05.646Z,963.7
2023-02-14T01:01:07.699Z,963.6
2023-02-14T01:02:10.120Z,963.7
2023-02-14T01:03:12.027Z,963.7
2023-02-14T01:04:13.850Z,963.7
2023-02-14T01:05:15.824Z,963.7
2023-02-14T01:06:17.593Z,963.7
2023-02-14T01:07:19.218Z,963.6
2023-02-14T01:08:21.141Z,963.6
2023-02-14T01:09:23.025Z,963.6
2023-02-14T01:10:24.843Z,963.7
2023-02-14T01:11:30.285Z,963.7
2023-02-14T01:12:32.133Z,963.7
2023-02-14T01:13:33.987Z,963.7
2023-02-14T01:14:35.930Z,963.7
2023-02-14T01:15:37.779Z,963.7
2023-02-14T01:16:40.096Z,963.7
2023-02-14T01:17:42.108Z,963.6
2023-02-14T01:18:43.951Z,963.7
2023-02-14T01:19:45.814Z,963.6
2023-02-14T01:20:47.652Z,963.6
2023-02-14T01:21:49.503Z,963.6
2023-02-14T01:22:51.360Z,963.7
2023-02-14T01:23:53.209Z,963.7
2023-02-14T01:24:55.078Z,963.7
2023-02-14T01:25:57.001Z,963.6
2023-02-14T01:26:58.787Z,963.6
2023-02-14T01:28:00.604Z,963.6
2023-02-14T01:29:02.339Z,963.5
2023-02-14T01:30:04.232Z,963.6
2023-02-14T01:31:06.423Z,963.5
2023-02-14T01:32:08.984Z,963.6
2023-02-14T01:33:11.042Z,963.5
2023-02-14T01:34:12.939Z,963.5
2023-02-14T01:35:14.880Z,963.5
2023-02-14T01:36:16.742Z,963.5
2023-02-14T01:37:18.580Z,963.5
2023-02-14T01:38:22.992Z,963.5
2023-02-14T01:39:24.812Z,963.5
2023-02-14T01:40:26.726Z,963.5
2023-02-14T01:41:28.541Z,963.4
2023-02-14T01:42:30.393Z,963.4
2023-02-14T01:43:32.268Z,963.4
2023-02-14T01:44:34.095Z,963.3
2023-02-14T01:45:36.086Z,963.3
2023-02-14T01:46:38.005Z,963.3
2023-02-14T01:47:39.895Z,963.3
2023-02-14T01:48:41.702Z,963.3
2023-02-14T01:49:43.452Z,963.3
2023-02-14T01:50:45.398Z,963.3
2023-02-14T01:51:47.189Z,963.3
2023-02-14T01:52:48.991Z,963.2
2023-02-14T01:53:50.796Z,963.3
2023-02-14T01:54:52.490Z,963.2
2023-02-14T01:55:54.263Z,963.2
2023-02-14T01:56:56.084Z,963.2
2023-02-14T01:57:57.755Z,963.2
2023-02-14T01:58:59.576Z,963.2
2023-02-14T02:00:01.438Z,963.2
2023-02-14T02:01:04.573Z,963.2
2023-02-14T02:02:06.796Z,963.1
2023-02-14T02:03:08.551Z,963.1
2023-02-14T02:04:10.370Z,963.1
2023-02-14T02:05:12.127Z,963.2
2023-02-14T02:06:13.866Z,963.1
2023-02-14T02:07:15.822Z,963.1
2023-02-14T02:08:17.679Z,963.1
2023-02-14T02:09:19.529Z,963
2023-02-14T02:10:21.470Z,963.1
2023-02-14T02:11:23.354Z,963.2
2023-02-14T02:12:25.275Z,963.2
2023-02-14T02:13:27.236Z,963.2
2023-02-14T02:14:29.187Z,963.2
2023-02-14T02:15:31.138Z,963.2
2023-02-14T02:16:33.206Z,963.2
2023-02-14T02:17:35.137Z,963.2
2023-02-14T02:18:36.993Z,963.2
2023-02-14T02:19:38.950Z,963.2
2023-02-14T02:20:40.593Z,963.2
2023-02-14T02:21:42.271Z,963.2
2023-02-14T02:22:43.892Z,963.2
2023-02-14T02:23:45.619Z,963.2
2023-02-14T02:24:47.387Z,963.2
2023-02-14T02:25:49.230Z,963.2
2023-02-14T02:26:50.996Z,963.1
2023-02-14T02:27:52.783Z,963.1
2023-02-14T02:28:54.679Z,963
2023-02-14T02:29:56.571Z,963
2023-02-14T02:31:00.354Z,962.9
2023-02-14T02:32:03.373Z,963
2023-02-14T02:33:05.433Z,962.9
2023-02-14T02:34:07.207Z,962.9
2023-02-14T02:35:09.054Z,962.9
2023-02-14T02:36:10.898Z,962.8
2023-02-14T02:37:12.663Z,962.9
2023-02-14T02:38:14.467Z,962.8
2023-02-14T02:39:16.274Z,962.9
2023-02-14T02:40:18.097Z,962.8
2023-02-14T02:41:19.935Z,962.8
2023-02-14T02:42:21.936Z,962.7
2023-02-14T02:43:23.850Z,962.7
2023-02-14T02:44:25.692Z,962.7
2023-02-14T02:45:27.436Z,962.7
2023-02-14T02:46:29.574Z,962.7
2023-02-14T02:47:31.546Z,962.7
2023-02-14T02:48:33.306Z,962.7
2023-02-14T02:49:35.166Z,962.7
2023-02-14T02:50:36.926Z,962.7
2023-02-14T02:51:38.643Z,962.7
2023-02-14T02:52:40.505Z,962.6
2023-02-14T02:53:42.362Z,962.6
2023-02-14T02:54:44.207Z,962.7
2023-02-14T02:55:45.964Z,962.7
2023-02-14T02:56:47.709Z,962.7
2023-02-14T02:57:49.669Z,962.7
2023-02-14T02:58:51.504Z,962.7
2023-02-14T02:59:53.337Z,962.7
2023-02-14T03:00:55.084Z,962.8
2023-02-14T03:01:57.046Z,962.8
2023-02-14T03:02:58.832Z,962.8
2023-02-14T03:04:00.638Z,962.9
2023-02-14T03:05:02.875Z,962.9
2023-02-14T03:06:04.745Z,962.9
2023-02-14T03:07:06.699Z,962.8
2023-02-14T03:08:08.545Z,962.7
2023-02-14T03:09:10.409Z,962.7
2023-02-14T03:10:12.347Z,962.7
2023-02-14T03:11:14.097Z,962.8
2023-02-14T03:12:15.974Z,962.8
2023-02-14T03:13:17.834Z,962.8
2023-02-14T03:14:19.684Z,962.8
2023-02-14T03:15:21.499Z,962.8
2023-02-14T03:16:23.351Z,962.8
2023-02-14T03:17:25.311Z,962.8
2023-02-14T03:18:27.156Z,962.8
2023-02-14T03:19:28.908Z,962.8
2023-02-14T03:20:30.803Z,962.9
2023-02-14T03:21:32.565Z,962.8
2023-02-14T03:22:36.885Z,962.8
2023-02-14T03:23:41.025Z,962.7
2023-02-14T03:24:42.771Z,962.6
2023-02-14T03:25:44.708Z,962.6
2023-02-14T03:26:46.468Z,962.6
2023-02-14T03:27:48.207Z,962.6
2023-02-14T03:28:50.087Z,962.6
2023-02-14T03:29:52.036Z,962.6
2023-02-14T03:30:54.349Z,962.6
2023-02-14T03:31:56.895Z,962.5
2023-02-14T03:32:58.884Z,962.5
2023-02-14T03:34:00.720Z,962.5
2023-02-14T03:35:02.686Z,962.4
2023-02-14T03:36:04.446Z,962.5
2023-02-14T03:37:06.295Z,962.5
2023-02-14T03:38:08.143Z,962.5
2023-02-14T03:39:09.963Z,962.6
2023-02-14T03:40:11.851Z,962.5
2023-02-14T03:41:13.791Z,962.5
2023-02-14T03:42:15.750Z,962.4
2023-02-14T03:43:17.589Z,962.5
2023-02-14T03:44:22.040Z,962.5
2023-02-14T03:45:24.112Z,962.5
2023-02-14T03:46:26.346Z,962.5
2023-02-14T03:47:28.371Z,962.5
2023-02-14T03:48:30.122Z,962.5
2023-02-14T03:49:31.978Z,962.5
2023-02-14T03:50:33.825Z,962.5
2023-02-14T03:51:35.666Z,962.5
2023-02-14T03:52:37.425Z,962.5
2023-02-14T03:53:39.267Z,962.5
2023-02-14T03:54:41.125Z,962.5
2023-02-14T03:55:43.169Z,962.5
2023-02-14T03:56:45.107Z,962.5
2023-02-14T03:57:46.786Z,962.4
2023-02-14T03:58:48.620Z,962.5
2023-02-14T03:59:50.494Z,962.5
2023-02-14T04:00:52.430Z,962.4
2023-02-14T04:01:54.401Z,962.4
2023-02-14T04:02:56.333Z,962.4
2023-02-14T04:03:58.692Z,962.3
2023-02-14T04:05:00.667Z,962.3
2023-02-14T04:06:02.502Z,962.3
2023-02-14T04:07:04.350Z,962.3
2023-02-14T04:08:06.202Z,962.3
2023-02-14T04:09:08.197Z,962.3
2023-02-14T04:10:10.098Z,962.3
2023-02-14T04:11:11.951Z,962.2
2023-02-14T04:12:13.857Z,962.3
2023-02-14T04:13:15.854Z,962.2
2023-02-14T04:14:17.810Z,962.3
2023-02-14T04:15:19.785Z,962.3
2023-02-14T04:16:21.954Z,962.3
2023-02-14T04:17:24.072Z,962.3
2023-02-14T04:18:25.928Z,962.3
2023-02-14T04:19:27.886Z,962.4
2023-02-14T04:20:29.728Z,962.4
2023-02-14T04:21:31.478Z,962.4
2023-02-14T04:22:33.206Z,962.4
2023-02-14T04:23:34.982Z,962.4
2023-02-14T04:24:36.780Z,962.4
2023-02-14T04:25:38.395Z,962.4
2023-02-14T04:26:40.045Z,962.3
2023-02-14T04:27:41.748Z,962.4
2023-02-14T04:28:43.506Z,962.4
2023-02-14T04:29:45.560Z,962.3
2023-02-14T04:30:47.548Z,962.4
2023-02-14T04:31:49.762Z,962.3
2023-02-14T04:32:51.825Z,962.3
2023-02-14T04:33:53.676Z,962.3
2023-02-14T04:34:55.671Z,962.3
2023-02-14T04:35:57.405Z,962.3
2023-02-14T04:36:59.025Z,962.3
2023-02-14T04:38:00.655Z,962.3
2023-02-14T04:39:02.296Z,962.3
2023-02-14T04:40:03.942Z,962.2
2023-02-14T04:41:05.704Z,962.3
2023-02-14T04:42:07.553Z,962.3
2023-02-14T04:43:09.505Z,962.3
2023-02-14T04:44:11.353Z,962.2
2023-02-14T04:45:13.318Z,962.2
2023-02-14T04:46:15.642Z,962.2
2023-02-14T04:47:17.627Z,962.2
2023-02-14T04:48:19.567Z,962.1
2023-02-14T04:49:21.317Z,962.1
2023-02-14T04:50:23.167Z,962.2
2023-02-14T04:51:27.989Z,962.1
2023-02-14T04:52:29.938Z,962.1
2023-02-14T04:53:31.787Z,962
2023-02-14T04:54:33.634Z,962
2023-02-14T04:55:35.403Z,962
2023-02-14T04:56:37.235Z,962
2023-02-14T04:57:39.140Z,962
2023-02-14T04:58:40.936Z,962
2023-02-14T04:59:42.745Z,962.1
2023-02-14T05:00:44.604Z,962
2023-02-14T05:01:46.840Z,962.1
2023-02-14T05:02:48.969Z,962
2023-02-14T05:03:50.686Z,962.1
2023-02-14T05:04:52.454Z,962.1
2023-02-14T05:05:54.188Z,962.1
2023-02-14T05:06:55.870Z,962.1
2023-02-14T05:07:57.638Z,962.1
2023-02-14T05:08:59.646Z,962.1
2023-02-14T05:10:01.380Z,962.1
2023-02-14T05:11:03.047Z,962.1
2023-02-14T05:12:04.622Z,962.1
2023-02-14T05:13:06.265Z,962.1
2023-02-14T05:14:07.908Z,962.1
2023-02-14T05:15:09.548Z,962.1
2023-02-14T05:16:11.413Z,962.1
2023-02-14T05:17:13.317Z,962.1
2023-02-14T05:18:15.001Z,962.1
2023-02-14T05:19:16.735Z,962.1
2023-02-14T05:20:18.364Z,962
2023-02-14T05:21:20.198Z,962
2023-02-14T05:22:21.894Z,962
2023-02-14T05:23:23.689Z,962.1
2023-02-14T05:24:25.653Z,962
2023-02-14T05:25:27.732Z,962
2023-02-14T05:26:29.562Z,962
2023-02-14T05:27:31.431Z,961.9
2023-02-14T05:28:33.456Z,962
2023-02-14T05:29:35.376Z,962
2023-02-14T05:30:37.887Z,961.9
2023-02-14T05:31:40.315Z,962
2023-02-14T05:32:45.084Z,962
2023-02-14T05:33:47.031Z,962
2023-02-14T05:34:48.868Z,961.9
2023-02-14T05:35:50.720Z,962
2023-02-14T05:36:52.552Z,962
2023-02-14T05:37:54.304Z,961.9
2023-02-14T05:38:56.165Z,962
2023-02-14T05:39:58.009Z,962
2023-02-14T05:41:00.926Z,961.9
2023-02-14T05:42:03.366Z,961.9
2023-02-14T05:43:05.134Z,961.9
2023-02-14T05:44:06.834Z,961.9
2023-02-14T05:45:08.595Z,961.9
2023-02-14T05:46:10.796Z,961.9
2023-02-14T05:47:13.722Z,961.9
2023-02-14T05:48:15.527Z,961.9
2023-02-14T05:49:17.430Z,961.9
2023-02-14T05:50:19.167Z,961.9
2023-02-14T05:51:21.414Z,961.9
2023-02-14T05:52:23.191Z,961.9
2023-02-14T05:53:25.019Z,961.9
2023-02-14T05:54:27.077Z,961.9
2023-02-14T05:55:28.842Z,961.9
2023-02-14T05:56:30.683Z,961.9
2023-02-14T05:57:32.537Z,961.9
2023-02-14T05:58:34.317Z,961.9
2023-02-14T05:59:36.135Z,961.9
2023-02-14T06:00:41.695Z,961.9
2023-02-14T06:01:43.547Z,961.9
2023-02-14T06:02:45.571Z,961.9
2023-02-14T06:03:47.424Z,961.9
2023-02-14T06:04:49.580Z,961.9
2023-02-14T06:05:51.651Z,962
2023-02-14T06:06:53.570Z,962
2023-02-14T06:07:55.566Z,962
2023-02-14T06:08:57.503Z,961.9
2023-02-14T06:09:59.324Z,962
2023-02-14T06:11:02.248Z,962
2023-02-14T06:12:04.406Z,962.1
2023-02-14T06:13:06.148Z,962.1
2023-02-14T06:14:08.084Z,962.1
2023-02-14T06:15:10.198Z,962.1
2023-02-14T06:16:12.260Z,962.1
2023-02-14T06:17:14.149Z,962.1
2023-02-14T06:18:16.201Z,962.1
2023-02-14T06:19:19.197Z,962.1
2023-02-14T06:20:21.035Z,962.1
2023-02-14T06:21:22.984Z,962.1
2023-02-14T06:22:24.850Z,962.1
2023-02-14T06:23:26.672Z,962.1
2023-02-14T06:24:28.642Z,962.1
2023-02-14T06:25:30.589Z,962
2023-02-14T06:26:32.437Z,962.1
2023-02-14T06:27:34.211Z,962.1
2023-02-14T06:28:35.857Z,962.1
2023-02-14T06:29:37.580Z,962.1
2023-02-14T06:30:40.437Z,962.1
2023-02-14T06:31:43.094Z,962.1
2023-02-14T06:32:45.426Z,962.1
2023-02-14T06:33:47.257Z,962.1
2023-02-14T06:34:49.214Z,962.1
2023-02-14T06:35:50.961Z,962.1
2023-02-14T06:36:52.887Z,962.1
2023-02-14T06:37:54.743Z,962
2023-02-14T06:38:56.708Z,962
2023-02-14T06:39:59.138Z,962
2023-02-14T06:41:02.039Z,962.1
2023-02-14T06:42:04.801Z,962.1
2023-02-14T06:43:06.651Z,962
2023-02-14T06:44:08.473Z,962.1
2023-02-14T06:45:10.622Z,962.1
2023-02-14T06:46:12.654Z,962
2023-02-14T06:47:14.925Z,962.1
2023-02-14T06:48:17.381Z,962.1
2023-02-14T06:49:19.221Z,962
2023-02-14T06:50:21.375Z,962
2023-02-14T06:51:23.187Z,962
2023-02-14T06:52:25.055Z,962
2023-02-14T06:53:26.894Z,962
2023-02-14T06:54:28.750Z,962
2023-02-14T06:55:30.545Z,962
2023-02-14T06:56:32.679Z,962
2023-02-14T06:57:35.109Z,962
2023-02-14T06:58:36.956Z,962
2023-02-14T06:59:38.786Z,961.9
2023-02-14T07:00:40.681Z,962
2023-02-14T07:01:42.805Z,961.9
2023-02-14T07:02:44.872Z,961.9
2023-02-14T07:03:46.827Z,962
2023-02-14T07:04:48.786Z,962
2023-02-14T07:05:51.553Z,962
2023-02-14T07:06:53.395Z,961.9
2023-02-14T07:07:55.721Z,961.9
2023-02-14T07:08:57.613Z,961.9
2023-02-14T07:10:00.081Z,961.9
2023-02-14T07:11:03.296Z,961.8
2023-02-14T07:12:05.356Z,961.8
2023-02-14T07:13:07.228Z,961.8
2023-02-14T07:14:09.011Z,961.8
2023-02-14T07:15:10.965Z,961.9
2023-02-14T07:16:13.079Z,961.8
2023-02-14T07:17:15.325Z,961.7
2023-02-14T07:18:17.130Z,961.9
2023-02-14T07:19:20.400Z,961.9
2023-02-14T07:20:22.251Z,961.9
2023-02-14T07:21:24.320Z,961.9
2023-02-14T07:22:26.382Z,961.9
2023-02-14T07:23:28.417Z,961.8
2023-02-14T07:24:30.273Z,961.9
2023-02-14T07:25:34.993Z,961.9
2023-02-14T07:26:36.998Z,961.9
2023-02-14T07:27:38.844Z,961.9
2023-02-14T07:28:40.550Z,961.9
2023-02-14T07:29:42.418Z,961.9
2023-02-14T07:30:44.463Z,961.9
2023-02-14T07:31:47.163Z,962
2023-02-14T07:32:49.382Z,961.9
2023-02-14T07:33:52.532Z,961.9
2023-02-14T07:34:54.317Z,961.9
2023-02-14T07:35:56.463Z,962
2023-02-14T07:36:58.339Z,962
2023-02-14T07:38:00.676Z,962
2023-02-14T07:39:05.421Z,961.9
2023-02-14T07:40:15.646Z,962
2023-02-14T07:41:17.480Z,962
2023-02-14T07:42:19.422Z,962
2023-02-14T07:43:21.136Z,962
2023-02-14T07:44:22.902Z,962
2023-02-14T07:45:24.745Z,962
2023-02-14T07:46:26.979Z,961.9
2023-02-14T07:47:29.504Z,962.1
2023-02-14T07:48:34.847Z,962.1
2023-02-14T07:49:36.691Z,962.1
2023-02-14T07:50:39.150Z,962.2
2023-02-14T07:51:41.006Z,962.1
2023-02-14T07:52:43.010Z,962.1
2023-02-14T07:53:45.004Z,962.1
2023-02-14T07:54:47.381Z,962.1
2023-02-14T07:55:49.319Z,962.1
2023-02-14T07:56:51.058Z,962.1
2023-02-14T07:57:52.912Z,962.2
2023-02-14T07:58:54.839Z,962.2
2023-02-14T07:59:57.233Z,962.2
2023-02-14T08:01:00.985Z,962.2
2023-02-14T08:02:03.861Z,962.2
2023-02-14T08:03:06.275Z,962.2
2023-02-14T08:04:08.118Z,962.2
2023-02-14T08:05:10.189Z,962.3
2023-02-14T08:06:12.125Z,962.2
2023-02-14T08:07:13.978Z,962.2
2023-02-14T08:08:15.833Z,962.3
2023-02-14T08:09:17.773Z,962.2
2023-02-14T08:10:20.138Z,962.3
2023-02-14T08:11:21.995Z,962.2
2023-02-14T08:12:23.935Z,962.3
2023-02-14T08:13:26.327Z,962.3
2023-02-14T08:14:28.147Z,962.3
2023-02-14T08:15:29.989Z,962.3
2023-02-14T08:16:32.472Z,962.3
2023-02-14T08:17:37.020Z,962.3
2023-02-14T08:18:38.816Z,962.3
2023-02-14T08:19:40.713Z,962.3
2023-02-14T08:20:42.438Z,962.4
2023-02-14T08:21:44.118Z,962.4
2023-02-14T08:22:45.764Z,962.4
2023-02-14T08:23:48.108Z,962.4
2023-02-14T08:24:49.864Z,962.4
2023-02-14T08:25:51.659Z,962.4
2023-02-14T08:26:53.329Z,962.4
2023-02-14T08:27:55.220Z,962.4
2023-02-14T08:28:57.238Z,962.4
2023-02-14T08:29:59.434Z,962.4
2023-02-14T08:31:03.180Z,962.4
2023-02-14T08:32:06.283Z,962.4
2023-02-14T08:33:08.213Z,962.4
2023-02-14T08:34:09.912Z,962.4
2023-02-14T08:35:11.553Z,962.4
2023-02-14T08:36:13.670Z,962.4
2023-02-14T08:37:15.368Z,962.4
2023-02-14T08:38:17.103Z,962.3
2023-02-14T08:39:18.853Z,962.3
2023-02-14T08:40:20.562Z,962.3
2023-02-14T08:41:22.590Z,962.2
2023-02-14T08:42:24.543Z,962.3
2023-02-14T08:43:26.402Z,962.3
2023-02-14T08:44:28.272Z,962.4
2023-02-14T08:45:30.123Z,962.4
2023-02-14T08:46:32.401Z,962.4
2023-02-14T08:47:34.734Z,962.5
2023-02-14T08:48:39.869Z,962.5
2023-02-14T08:49:41.637Z,962.5
2023-02-14T08:50:43.311Z,962.5
2023-02-14T08:51:45.183Z,962.5
2023-02-14T08:52:47.537Z,962.5
2023-02-14T08:53:49.792Z,962.5
2023-02-14T08:54:52.192Z,962.5
2023-02-14T08:55:54.044Z,962.5
2023-02-14T08:56:55.858Z,962.5
2023-02-14T08:57:57.608Z,962.5
2023-02-14T08:58:59.804Z,962.4
2023-02-14T09:00:01.711Z,962.5
2023-02-14T09:01:04.596Z,962.5
2023-02-14T09:02:06.779Z,962.4
2023-02-14T09:03:09.181Z,962.5
2023-02-14T09:04:11.484Z,962.5
2023-02-14T09:05:13.544Z,962.5
2023-02-14T09:06:15.448Z,962.5
2023-02-14T09:07:17.881Z,962.4
2023-02-14T09:08:20.348Z,962.4
2023-02-14T09:09:22.607Z,962.4
2023-02-14T09:10:24.960Z,962.3
2023-02-14T09:11:26.889Z,962.4
2023-02-14T09:12:28.987Z,962.4
2023-02-14T09:13:30.910Z,962.5
2023-02-14T09:14:32.679Z,962.5
2023-02-14T09:15:34.726Z,962.4
2023-02-14T09:16:37.018Z,962.4
2023-02-14T09:17:39.089Z,962.3
2023-02-14T09:18:40.905Z,962.3
2023-02-14T09:19:42.793Z,962.3
2023-02-14T09:20:44.568Z,962.3
2023-02-14T09:21:46.344Z,962.3
2023-02-14T09:22:49.508Z,962.2
2023-02-14T09:23:51.343Z,962.3
2023-02-14T09:24:53.092Z,962.2
2023-02-14T09:25:55.065Z,962.3
2023-02-14T09:26:56.888Z,962.2
2023-02-14T09:27:58.755Z,962.2
2023-02-14T09:29:00.437Z,962.2
2023-02-14T09:30:02.756Z,962.3
2023-02-14T09:31:04.707Z,962.3
2023-02-14T09:32:07.237Z,962.3
2023-02-14T09:33:09.336Z,962.3
2023-02-14T09:34:11.018Z,962.3
2023-02-14T09:35:12.723Z,962.3
2023-02-14T09:36:14.441Z,962.4
2023-02-14T09:37:16.125Z,962.3
2023-02-14T09:38:17.872Z,962.3
2023-02-14T09:39:19.530Z,962.2
2023-02-14T09:40:21.306Z,962.2
2023-02-14T09:41:23.141Z,962.2
2023-02-14T09:42:25.063Z,962.2
2023-02-14T09:43:27.421Z,962.1
2023-02-14T09:44:29.205Z,962.2
2023-02-14T09:45:31.137Z,962.1
2023-02-14T09:46:36.000Z,962.1
2023-02-14T09:47:37.722Z,962.2
2023-02-14T09:48:39.518Z,962.1
2023-02-14T09:49:41.658Z,962.1
2023-02-14T09:50:43.638Z,962.1
2023-02-14T09:51:45.492Z,962.1
2023-02-14T09:52:47.510Z,962.1
2023-02-14T09:53:49.202Z,962.1
2023-02-14T09:54:52.076Z,962.1
2023-02-14T09:55:55.282Z,962.1
2023-02-14T09:56:57.184Z,962.2
2023-02-14T09:57:59.077Z,962.2
2023-02-14T09:59:01.124Z,962.1
2023-02-14T10:00:03.286Z,962
2023-02-14T10:01:05.303Z,962.1
2023-02-14T10:02:07.478Z,962
2023-02-14T10:03:09.283Z,962.1
2023-02-14T10:04:11.428Z,962
2023-02-14T10:05:13.083Z,962.1
2023-02-14T10:06:14.814Z,962.1
2023-02-14T10:07:16.489Z,962.1
2023-02-14T10:08:18.291Z,962.1
2023-02-14T10:09:20.638Z,962.1
2023-02-14T10:10:22.856Z,962
2023-02-14T10:11:24.764Z,962
2023-02-14T10:12:26.631Z,962
2023-02-14T10:13:28.559Z,962
2023-02-14T10:14:30.522Z,962
2023-02-14T10:15:32.387Z,962
2023-02-14T10:16:34.601Z,962
2023-02-14T10:17:36.456Z,962
2023-02-14T10:18:38.193Z,962
2023-02-14T10:19:40.164Z,961.9
2023-02-14T10:20:41.942Z,961.9
2023-02-14T10:21:43.690Z,961.9
2023-02-14T10:22:45.527Z,961.9
2023-02-14T10:23:47.362Z,962
2023-02-14T10:24:49.215Z,961.9
2023-02-14T10:25:50.958Z,961.9
2023-02-14T10:26:52.804Z,961.8
2023-02-14T10:27:54.687Z,961.9
2023-02-14T10:28:56.521Z,961.9
2023-02-14T10:29:58.612Z,961.9
2023-02-14T10:31:02.171Z,961.8
2023-02-14T10:32:05.151Z,961.9
2023-02-14T10:33:06.982Z,961.8
2023-02-14T10:34:08.828Z,961.9
2023-02-14T10:35:10.673Z,961.8
2023-02-14T10:36:12.665Z,961.8
2023-02-14T10:37:14.405Z,961.8
2023-02-14T10:38:16.125Z,961.8
2023-02-14T10:39:18.029Z,961.9
2023-02-14T10:40:20.038Z,961.8
2023-02-14T10:41:21.891Z,961.9
2023-02-14T10:42:23.840Z,961.8
2023-02-14T10:43:25.716Z,961.8
2023-02-14T10:44:27.530Z,961.8
2023-02-14T10:45:29.492Z,961.8
2023-02-14T10:46:31.897Z,961.8
2023-02-14T10:47:33.725Z,961.8
2023-02-14T10:48:35.545Z,961.8
2023-02-14T10:49:37.503Z,961.8
2023-02-14T10:50:39.445Z,961.8
2023-02-14T10:51:41.406Z,961.8
2023-02-14T10:52:43.769Z,961.9
2023-02-14T10:53:45.635Z,961.8
2023-02-14T10:54:47.568Z,961.8
2023-02-14T10:55:49.401Z,961.8
2023-02-14T10:56:51.270Z,961.8
2023-02-14T10:57:53.125Z,961.8
2023-02-14T10:58:55.082Z,961.7
2023-02-14T10:59:56.919Z,961.7
2023-02-14T11:01:00.190Z,961.7
2023-02-14T11:02:02.658Z,961.7
2023-02-14T11:03:04.752Z,961.7
2023-02-14T11:04:06.681Z,961.8
2023-02-14T11:05:09.090Z,961.7
2023-02-14T11:06:10.996Z,961.7
2023-02-14T11:07:13.269Z,961.7
2023-02-14T11:08:15.232Z,961.7
2023-02-14T11:09:17.070Z,961.7
2023-02-14T11:10:19.209Z,961.8
2023-02-14T11:11:21.068Z,961.8
2023-02-14T11:12:23.115Z,961.7
2023-02-14T11:13:25.167Z,961.8
2023-02-14T11:14:27.167Z,961.8
2023-02-14T11:15:29.107Z,961.8
2023-02-14T11:16:31.408Z,961.7
2023-02-14T11:17:33.798Z,961.7
2023-02-14T11:18:35.669Z,961.6
2023-02-14T11:19:37.963Z,961.6
2023-02-14T11:20:39.868Z,961.7
2023-02-14T11:21:41.708Z,961.7
2023-02-14T11:22:43.577Z,961.7
2023-02-14T11:23:46.830Z,961.7
2023-02-14T11:24:48.713Z,961.7
2023-02-14T11:25:50.745Z,961.7
2023-02-14T11:26:52.606Z,961.7
2023-02-14T11:27:54.452Z,961.7
2023-02-14T11:28:56.246Z,961.6
2023-02-14T11:29:58.509Z,961.6
2023-02-14T11:31:01.936Z,961.6
2023-02-14T11:32:05.055Z,961.6
2023-02-14T11:33:06.964Z,961.6
2023-02-14T11:34:08.704Z,961.6
2023-02-14T11:35:11.079Z,961.5
2023-02-14T11:36:12.938Z,961.5
2023-02-14T11:37:14.683Z,961.6
2023-02-14T11:38:16.840Z,961.5
2023-02-14T11:39:22.397Z,961.5
2023-02-14T11:40:24.706Z,961.6
2023-02-14T11:41:26.511Z,961.5
2023-02-14T11:42:28.208Z,961.5
2023-02-14T11:43:30.091Z,961.5
2023-02-14T11:44:31.847Z,961.5
2023-02-14T11:45:33.783Z,961.5
2023-02-14T11:46:53.879Z,961.5
2023-02-14T11:47:56.640Z,961.5
2023-02-14T11:48:58.308Z,961.4
2023-02-14T11:50:00.085Z,961.4
2023-02-14T11:51:02.571Z,961.4
2023-02-14T11:52:04.273Z,961.4
2023-02-14T11:53:05.932Z,961.4
2023-02-14T11:54:07.630Z,961.4
2023-02-14T11:55:09.446Z,961.4
2023-02-14T11:56:11.135Z,961.4
2023-02-14T11:57:14.933Z,961.4
2023-02-14T11:58:16.628Z,961.3
2023-02-14T11:59:18.359Z,961.3
2023-02-14T12:00:20.289Z,961.3
2023-02-14T12:01:22.074Z,961.3
2023-02-14T12:02:24.127Z,961.3
2023-02-14T12:03:27.048Z,961.2
2023-02-14T12:04:35.395Z,961.1
2023-02-14T12:05:48.172Z,961.2
2023-02-14T12:06:49.942Z,961.2
2023-02-14T12:07:51.616Z,961.2
2023-02-14T12:08:53.410Z,961.2
2023-02-14T12:09:55.233Z,961.1
2023-02-14T12:10:56.964Z,961.1
2023-02-14T12:11:58.801Z,961.1
2023-02-14T12:13:00.555Z,961.1
2023-02-14T12:14:02.209Z,961
2023-02-14T12:15:03.913Z,961
2023-02-14T12:16:05.760Z,961.1
2023-02-14T12:17:07.629Z,961.1
2023-02-14T12:18:09.744Z,961.1
2023-02-14T12:19:12.079Z,961
2023-02-14T12:20:13.875Z,961
2023-02-14T12:21:15.606Z,961.1
2023-02-14T12:22:17.274Z,961.1
2023-02-14T12:23:18.968Z,961.1
2023-02-14T12:24:20.626Z,961.1
2023-02-14T12:25:22.371Z,961.1
2023-02-14T12:26:24.058Z,961.1
2023-02-14T12:27:25.826Z,961.1
2023-02-14T12:28:27.720Z,961.1
2023-02-14T12:29:29.483Z,961.1
2023-02-14T12:30:31.211Z,961.1
2023-02-14T12:31:33.593Z,961.1
2023-02-14T12:32:35.775Z,961
2023-02-14T12:33:37.493Z,961
2023-02-14T12:34:39.720Z,961
2023-02-14T12:35:41.398Z,961
2023-02-14T12:36:43.134Z,961
2023-02-14T12:38:02.924Z,961
2023-02-14T12:39:06.798Z,961
2023-02-14T12:40:08.558Z,961
2023-02-14T12:41:10.358Z,960.9
2023-02-14T12:42:12.247Z,961
2023-02-14T12:43:14.010Z,960.9
2023-02-14T12:44:15.842Z,960.9
2023-02-14T12:45:17.920Z,961
2023-02-14T12:46:20.133Z,960.9
2023-02-14T12:47:21.948Z,960.9
2023-02-14T12:48:24.151Z,960.9
2023-02-14T12:49:25.964Z,960.9
2023-02-14T12:50:27.977Z,960.9
2023-02-14T12:51:29.617Z,960.9
2023-02-14T12:52:31.399Z,961
2023-02-14T12:53:33.086Z,960.9
2023-02-14T12:54:34.768Z,961
2023-02-14T12:55:36.463Z,961
2023-02-14T12:56:38.235Z,961
2023-02-14T12:57:40.170Z,961
2023-02-14T12:58:42.055Z,960.9
2023-02-14T12:59:43.908Z,961
2023-02-14T13:00:45.802Z,961
2023-02-14T13:01:47.737Z,960.9
2023-02-14T13:02:49.892Z,961
2023-02-14T13:03:51.914Z,960.9
2023-02-14T13:04:53.658Z,960.9
2023-02-14T13:05:55.319Z,960.9
2023-02-14T13:06:57.561Z,960.9
2023-02-14T13:07:59.368Z,960.9
2023-02-14T13:09:01.279Z,960.9
2023-02-14T13:10:03.226Z,960.8
2023-02-14T13:11:05.230Z,960.9
2023-02-14T13:12:07.060Z,960.8
2023-02-14T13:13:08.893Z,960.8
2023-02-14T13:14:10.845Z,960.8
2023-02-14T13:15:12.797Z,960.8
2023-02-14T13:16:14.705Z,960.8
2023-02-14T13:17:16.515Z,960.8
2023-02-14T13:18:18.340Z,960.7
2023-02-14T13:19:20.216Z,960.8
2023-02-14T13:20:22.032Z,960.8
2023-02-14T13:21:23.815Z,960.8
2023-02-14T13:22:25.684Z,960.7
2023-02-14T13:23:28.552Z,960.8
2023-02-14T13:24:31.119Z,960.7
2023-02-14T13:25:33.718Z,960.7
2023-02-14T13:26:35.584Z,960.7
2023-02-14T13:27:37.566Z,960.8
2023-02-14T13:28:39.399Z,960.8